« Back
NWS Peachtree City, Ga » Text Product » MCN Terminal Aerodrome Forecast


Printer-friendly Version
Current Version              Previous Versions:   1  2  3  4  5  6  7  8  9  

Terminal Aerodrome Forecast

442
FTUS42 KFFC 232322
TAFMCN
TAF
KMCN 232322Z 2400/2424 10003KT P6SM VCSH SCT060 BKN150
     FM240200 VRB03KT P6SM FEW060 SCT250
     FM240900 VRB03KT P6SM SCT012 BKN060
     FM241400 10005KT P6SM BKN025
     FM241600 10005KT P6SM VCSH SCT035 BKN050=

USA.gov is the U.S. government's official web portal to all federal, state and local government web resources and services.